Time;durP1;ratioP1;P1;durP2;ratioP2;P2;SDS_P1;SDS_P2;PMS_P1;PMS_P2;Temp;Humidity;BMP_temperature;BMP_pressure;BME280_temperature;BME280_humidity;BME280_pressure;Samples;Min_cycle;Max_cycle;Signal;HPM_P1;HPM_P2
2024/04/24 00:01:13;;;;;;;;;;;;;;;25.48;24.58;97322.34;5392702;26;19936;-82
2024/04/24 00:03:39;;;;;;;;;;;;;;;25.74;24.22;97313.22;5393434;26;19930;-82
2024/04/24 00:06:05;;;;;;;;;;;;;;;25.70;24.39;97306.16;5383536;26;20356;-82
2024/04/24 00:08:31;;;;;;;;;;;;;;;25.22;24.89;97305.63;5385501;26;19940;-83
2024/04/24 00:10:57;;;;;;;;;;;;;;;25.57;24.38;97292.25;5389313;26;19929;-83
2024/04/24 00:13:23;;;;;;;;;;;;;;;26.15;23.74;97289.44;5386882;26;19934;-82
2024/04/24 00:15:49;;;;;;;;;;;;;;;26.98;22.81;97291.00;5387516;26;19975;-82
2024/04/24 00:18:15;;;;;;;;;;;;;;;27.07;22.67;97293.81;5386814;26;19933;-83
2024/04/24 00:20:41;;;;;;;;;;;;;;;27.51;22.28;97297.75;5390787;26;19929;-83
2024/04/24 00:23:07;;;;;;;;;;;;;;;27.78;21.80;97291.97;5401202;26;19937;-82
2024/04/24 00:25:35;;;;;;;;;;;;;;;28.00;21.76;97286.88;5388656;26;19936;-83
2024/04/24 00:28:01;;;;;;;;;;;;;;;28.16;21.42;97284.88;5398216;26;19937;-82
2024/04/24 00:30:27;;;;;;;;;;;;;;;28.26;21.32;97284.34;5397265;26;19937;-82
2024/04/24 00:32:53;;;;;;;;;;;;;;;28.20;21.48;97279.84;5382354;26;20030;-82
2024/04/24 00:35:19;;;;;;;;;;;;;;;27.85;21.81;97271.88;5357510;26;20261;-82
2024/04/24 00:37:45;;;;;;;;;;;;;;;27.25;22.56;97268.38;5392128;26;20378;-83
2024/04/24 00:40:12;;;;;;;;;;;;;;;27.42;22.67;97260.34;5395302;26;19980;-83
2024/04/24 00:42:38;;;;;;;;;;;;;;;27.88;21.96;97256.81;5391445;26;19948;-82
2024/04/24 00:45:04;;;;;;;;;;;;;;;28.15;21.69;97253.06;5390625;26;19930;-83
2024/04/24 00:47:31;;;;;;;;;;;;;;;28.27;21.39;97260.50;5400015;26;19945;-83
2024/04/24 00:50:00;;;;;;;;;;;;;;;28.38;21.30;97265.59;5395553;26;19936;-82
2024/04/24 00:52:26;;;;;;;;;;;;;;;28.47;21.10;97251.41;5397869;26;19937;-82
2024/04/24 00:54:53;;;;;;;;;;;;;;;28.27;21.46;97252.03;5387252;26;19944;-83
2024/04/24 00:57:19;;;;;;;;;;;;;;;28.22;21.28;97247.03;5385889;26;20360;-82
2024/04/24 00:59:45;;;;;;;;;;;;;;;28.41;21.54;97245.63;5357260;26;20368;-82
2024/04/24 01:02:11;;;;;;;;;;;;;;;28.57;21.48;97238.75;5387527;26;20388;-83
2024/04/24 01:04:37;;;;;;;;;;;;;;;28.65;21.31;97237.13;5357454;26;19978;-82
2024/04/24 01:07:04;;;;;;;;;;;;;;;28.56;21.48;97237.97;5381219;26;19983;-83
2024/04/24 01:09:30;;;;;;;;;;;;;;;28.54;21.53;97222.78;5386711;26;19941;-83
2024/04/24 01:11:56;;;;;;;;;;;;;;;28.51;21.43;97233.00;5392040;26;19994;-82
2024/04/24 01:14:22;;;;;;;;;;;;;;;28.52;21.62;97228.91;5387353;26;19937;-82
2024/04/24 01:16:48;;;;;;;;;;;;;;;28.63;21.11;97222.72;5382543;26;19930;-82
2024/04/24 01:19:35;;;;;;;;;;;;;;;28.70;21.27;97233.63;5393210;26;19934;-82
2024/04/24 01:22:10;;;;;;;;;;;;;;;28.77;21.37;97221.94;5358502;26;19945;-82
2024/04/24 01:24:39;;;;;;;;;;;;;;;28.83;21.06;97207.91;5385941;26;20373;-82
2024/04/24 01:27:05;;;;;;;;;;;;;;;28.87;21.00;97205.69;5388230;26;19941;-82
2024/04/24 01:29:31;;;;;;;;;;;;;;;28.34;21.84;97209.31;5351695;26;20630;-82
2024/04/24 01:31:58;;;;;;;;;;;;;;;28.33;21.63;97206.97;5386910;26;19937;-82
2024/04/24 01:34:24;;;;;;;;;;;;;;;28.51;21.00;97201.94;5392099;26;20360;-82
2024/04/24 01:36:50;;;;;;;;;;;;;;;28.67;21.00;97197.88;5391248;26;20381;-83
2024/04/24 01:39:16;;;;;;;;;;;;;;;28.75;21.02;97201.88;5389579;26;19930;-82
2024/04/24 01:41:42;;;;;;;;;;;;;;;28.60;21.55;97192.63;5380686;26;20007;-83
2024/04/24 01:44:08;;;;;;;;;;;;;;;28.38;21.47;97192.94;5390453;26;20387;-83
2024/04/24 01:46:34;;;;;;;;;;;;;;;28.44;21.41;97179.72;5386614;26;19937;-82
2024/04/24 01:49:00;;;;;;;;;;;;;;;28.61;21.13;97180.81;5396018;26;19930;-82
2024/04/24 01:51:26;;;;;;;;;;;;;;;28.69;21.41;97169.91;5386759;26;19934;-82
2024/04/24 01:53:55;;;;;;;;;;;;;;;28.72;21.35;97172.56;5383247;26;19930;-83
2024/04/24 01:56:21;;;;;;;;;;;;;;;28.80;21.27;97169.34;5357545;26;19929;-83
2024/04/24 01:58:48;;;;;;;;;;;;;;;28.81;21.28;97171.66;5388817;26;19936;-82
2024/04/24 02:01:14;;;;;;;;;;;;;;;28.92;21.13;97166.19;5382543;26;19929;-82
2024/04/24 02:03:40;;;;;;;;;;;;;;;29.08;20.92;97164.94;5384293;26;19949;-80
2024/04/24 02:06:06;;;;;;;;;;;;;;;29.24;20.78;97153.13;5382693;26;19930;-80
2024/04/24 02:08:34;;;;;;;;;;;;;;;29.00;21.04;97153.25;5391997;26;19936;-80
2024/04/24 02:11:00;;;;;;;;;;;;;;;29.13;21.11;97155.72;5384346;26;19930;-80
2024/04/24 02:13:26;;;;;;;;;;;;;;;29.22;21.01;97147.94;5388853;26;19957;-80
2024/04/24 02:15:52;;;;;;;;;;;;;;;29.33;20.71;97148.13;5383852;26;19936;-80
2024/04/24 02:18:18;;;;;;;;;;;;;;;28.95;21.21;97148.28;5383714;26;20372;-80
2024/04/24 02:20:44;;;;;;;;;;;;;;;28.95;20.75;97151.09;5355850;26;19998;-82
2024/04/24 02:23:13;;;;;;;;;;;;;;;29.03;20.69;97146.63;5384408;26;19944;-83
2024/04/24 02:25:39;;;;;;;;;;;;;;;29.09;20.99;97141.03;5390739;26;20373;-82
2024/04/24 02:28:09;;;;;;;;;;;;;;;28.91;21.29;97141.25;5388137;26;19936;-82
2024/04/24 02:30:35;;;;;;;;;;;;;;;29.02;21.18;97142.22;5383874;26;20441;-82
2024/04/24 02:33:01;;;;;;;;;;;;;;;28.81;21.34;97134.16;5384044;26;22253;-82
2024/04/24 02:35:27;;;;;;;;;;;;;;;28.74;21.16;97135.34;5385408;26;19956;-82
2024/04/24 02:37:53;;;;;;;;;;;;;;;28.87;21.45;97132.22;5386901;26;20365;-83
2024/04/24 02:40:19;;;;;;;;;;;;;;;28.45;21.58;97126.84;5387281;26;20322;-82
2024/04/24 02:42:45;;;;;;;;;;;;;;;28.66;21.25;97117.22;5392869;26;19937;-82
2024/04/24 02:45:11;;;;;;;;;;;;;;;28.65;21.16;97122.09;5395166;26;19929;-82
2024/04/24 02:47:37;;;;;;;;;;;;;;;28.75;21.14;97117.13;5393015;26;19936;-82
2024/04/24 02:50:04;;;;;;;;;;;;;;;28.53;21.54;97113.88;5400427;26;19929;-82
2024/04/24 02:52:30;;;;;;;;;;;;;;;28.73;21.21;97109.13;5394522;26;19933;-83
2024/04/24 02:54:56;;;;;;;;;;;;;;;28.82;21.05;97108.25;5391389;26;19933;-83
2024/04/24 02:57:22;;;;;;;;;;;;;;;28.95;21.07;97111.53;5405116;26;19936;-83
2024/04/24 02:59:48;;;;;;;;;;;;;;;29.00;20.68;97102.38;5354142;26;19965;-82
2024/04/24 03:02:14;;;;;;;;;;;;;;;29.00;20.94;97101.56;5386770;26;20269;-82
2024/04/24 03:04:40;;;;;;;;;;;;;;;28.90;20.96;97097.31;5385986;26;19937;-83
2024/04/24 03:07:06;;;;;;;;;;;;;;;28.82;21.12;97093.34;5411020;26;19936;-83
2024/04/24 03:09:32;;;;;;;;;;;;;;;28.78;21.00;97098.41;5399401;26;19929;-83
2024/04/24 03:11:58;;;;;;;;;;;;;;;28.90;21.00;97097.31;5387633;26;19929;-82
2024/04/24 03:14:24;;;;;;;;;;;;;;;28.86;21.09;97096.72;5383118;26;19981;-82
2024/04/24 03:16:50;;;;;;;;;;;;;;;28.80;21.08;97088.16;5391843;26;19964;-82
2024/04/24 03:19:16;;;;;;;;;;;;;;;28.34;21.39;97092.75;5383289;26;20257;-83
2024/04/24 03:21:42;;;;;;;;;;;;;;;27.93;21.99;97083.25;5352843;26;20261;-83
2024/04/24 03:24:08;;;;;;;;;;;;;;;27.52;22.26;97087.81;5392171;26;19929;-83
2024/04/24 03:26:34;;;;;;;;;;;;;;;27.49;22.33;97088.81;5392824;26;20368;-83
2024/04/24 03:29:00;;;;;;;;;;;;;;;27.52;22.26;97087.03;5382139;26;19930;-83
2024/04/24 03:31:30;;;;;;;;;;;;;;;27.34;22.41;97083.06;5384351;26;19945;-83
2024/04/24 03:33:57;;;;;;;;;;;;;;;26.71;23.26;97083.38;5384821;26;19958;-83
2024/04/24 03:36:23;;;;;;;;;;;;;;;26.96;23.00;97082.19;5391423;26;19956;-83
2024/04/24 03:38:49;;;;;;;;;;;;;;;27.26;22.79;97081.06;5412991;26;19940;-83
2024/04/24 03:41:15;;;;;;;;;;;;;;;27.04;22.87;97081.38;5402072;26;19929;-83
2024/04/24 03:43:41;;;;;;;;;;;;;;;26.03;24.02;97077.31;5400121;26;19929;-83
2024/04/24 03:46:08;;;;;;;;;;;;;;;25.57;24.87;97072.97;5392669;26;19937;-83
2024/04/24 03:48:34;;;;;;;;;;;;;;;25.09;25.42;97083.03;5386164;26;19933;-82
2024/04/24 03:51:00;;;;;;;;;;;;;;;25.56;25.24;97073.41;5394496;26;19941;-83
2024/04/24 03:53:26;;;;;;;;;;;;;;;24.53;26.31;97077.66;5383072;26;19961;-83
2024/04/24 03:55:52;;;;;;;;;;;;;;;24.73;26.19;97071.66;5398056;26;19936;-83
2024/04/24 03:58:18;;;;;;;;;;;;;;;25.63;25.59;97070.31;5383917;26;19937;-83
2024/04/24 04:00:44;;;;;;;;;;;;;;;25.65;25.36;97062.97;5397966;26;20007;-83
2024/04/24 04:03:10;;;;;;;;;;;;;;;25.64;25.36;97057.81;5391694;26;20356;-83
2024/04/24 04:05:37;;;;;;;;;;;;;;;25.27;25.98;97057.00;5389326;26;19998;-83
2024/04/24 04:08:03;;;;;;;;;;;;;;;25.17;26.34;97066.66;5393435;26;19944;-82
2024/04/24 04:10:29;;;;;;;;;;;;;;;26.05;24.96;97057.91;5390830;26;20020;-83
2024/04/24 04:12:55;;;;;;;;;;;;;;;26.42;24.80;97055.81;5389244;26;19965;-83
2024/04/24 04:15:21;;;;;;;;;;;;;;;26.70;24.16;97065.72;5390588;26;19936;-83
2024/04/24 04:17:47;;;;;;;;;;;;;;;27.05;23.85;97065.25;5397730;26;19937;-83
2024/04/24 04:20:14;;;;;;;;;;;;;;;27.22;23.36;97067.19;5404077;26;19929;-82
2024/04/24 04:22:40;;;;;;;;;;;;;;;27.51;23.29;97065.75;5387660;26;19975;-82
2024/04/24 04:25:06;;;;;;;;;;;;;;;27.63;23.37;97057.03;5407162;26;19929;-82
2024/04/24 04:27:32;;;;;;;;;;;;;;;27.66;23.32;97055.28;5392082;26;19941;-83
2024/04/24 04:30:01;;;;;;;;;;;;;;;27.78;23.13;97059.88;5390815;26;19933;-82
2024/04/24 04:32:27;;;;;;;;;;;;;;;27.93;22.77;97061.47;5388122;26;19936;-82
2024/04/24 04:34:53;;;;;;;;;;;;;;;28.00;22.88;97057.53;5397607;26;19935;-82
2024/04/24 04:37:19;;;;;;;;;;;;;;;28.10;22.72;97046.91;5388959;26;19934;-82
2024/04/24 04:39:45;;;;;;;;;;;;;;;28.17;22.53;97052.94;5390602;26;19929;-82
2024/04/24 04:42:12;;;;;;;;;;;;;;;27.99;23.13;97047.47;5386676;26;19958;-81
2024/04/24 04:44:38;;;;;;;;;;;;;;;28.09;22.72;97046.13;5391089;26;19932;-82
2024/04/24 04:47:04;;;;;;;;;;;;;;;27.96;22.63;97049.19;5392324;26;20015;-83
2024/04/24 04:49:30;;;;;;;;;;;;;;;27.34;23.55;97042.81;5390405;26;20272;-82
2024/04/24 04:51:56;;;;;;;;;;;;;;;27.00;24.08;97037.75;5387151;26;19936;-83
2024/04/24 04:54:22;;;;;;;;;;;;;;;25.97;25.11;97041.84;5394301;26;19933;-82
2024/04/24 04:56:51;;;;;;;;;;;;;;;26.31;25.07;97035.06;5390597;26;19936;-82
2024/04/24 04:59:17;;;;;;;;;;;;;;;26.26;24.61;97035.69;5390650;26;19948;-81
2024/04/24 05:01:43;;;;;;;;;;;;;;;26.21;24.80;97034.28;5359941;26;19941;-80
2024/04/24 05:04:09;;;;;;;;;;;;;;;26.24;24.86;97024.91;5413772;26;19936;-80
2024/04/24 05:06:35;;;;;;;;;;;;;;;25.65;25.58;97031.28;5392380;26;19954;-80
2024/04/24 05:09:01;;;;;;;;;;;;;;;25.84;25.41;97021.53;5389250;26;19929;-81
2024/04/24 05:11:28;;;;;;;;;;;;;;;25.98;25.18;97027.31;5397662;26;19936;-80
2024/04/24 05:13:55;;;;;;;;;;;;;;;26.11;25.00;97021.53;5408053;26;19929;-80
2024/04/24 05:16:21;;;;;;;;;;;;;;;25.07;26.01;97020.91;5403468;26;19936;-80
2024/04/24 05:18:47;;;;;;;;;;;;;;;26.06;25.25;97016.50;5393935;26;19929;-80
2024/04/24 05:21:13;;;;;;;;;;;;;;;25.48;25.76;97024.41;5393092;26;19998;-80
2024/04/24 05:23:39;;;;;;;;;;;;;;;24.91;26.57;97014.78;5398308;26;19936;-80
2024/04/24 05:29:07;;;;;;;;;;;;;;;25.77;25.57;97013.44;5412477;26;20376;-80
2024/04/24 05:31:35;;;;;;;;;;;;;;;25.86;25.67;97002.94;5403670;26;19936;-81
2024/04/24 05:34:02;;;;;;;;;;;;;;;25.92;25.50;96998.25;5382304;26;19929;-80
2024/04/24 05:36:28;;;;;;;;;;;;;;;26.25;25.07;97006.78;5403810;26;19929;-78
2024/04/24 05:38:54;;;;;;;;;;;;;;;25.08;26.35;97005.63;5397895;26;19999;-77
2024/04/24 05:41:20;;;;;;;;;;;;;;;25.30;26.33;97003.44;5397697;26;19941;-78
2024/04/24 05:43:46;;;;;;;;;;;;;;;25.63;25.62;96998.00;5369665;26;19937;-77
2024/04/24 05:46:12;;;;;;;;;;;;;;;25.43;25.78;96997.69;5392942;26;19938;-77
2024/04/24 05:48:38;;;;;;;;;;;;;;;25.25;26.04;97000.50;5393513;26;19978;-78
2024/04/24 05:51:04;;;;;;;;;;;;;;;25.41;26.24;96994.56;5386375;26;21046;-80
2024/04/24 05:53:31;;;;;;;;;;;;;;;25.72;25.68;97005.66;5389884;26;20001;-79
2024/04/24 05:55:57;;;;;;;;;;;;;;;24.89;26.44;96997.63;5392957;26;19953;-79
2024/04/24 05:58:23;;;;;;;;;;;;;;;24.87;26.37;96995.31;5386384;26;19949;-79
2024/04/24 06:00:49;;;;;;;;;;;;;;;25.12;26.21;97003.44;5391559;26;19929;-79
2024/04/24 06:03:15;;;;;;;;;;;;;;;25.80;25.55;96998.44;5401007;26;19944;-80
2024/04/24 06:05:41;;;;;;;;;;;;;;;26.15;25.03;96991.19;5397772;26;19935;-79
2024/04/24 06:08:07;;;;;;;;;;;;;;;25.15;26.12;96990.50;5384955;26;19929;-80
2024/04/24 06:10:33;;;;;;;;;;;;;;;25.25;26.07;96994.88;5394847;26;19940;-77
2024/04/24 06:12:59;;;;;;;;;;;;;;;25.97;25.57;96986.38;5387782;26;19930;-77
2024/04/24 06:15:28;;;;;;;;;;;;;;;26.22;24.96;96984.44;5353564;26;19944;-78
2024/04/24 06:17:54;;;;;;;;;;;;;;;25.19;25.96;96985.50;5386654;26;19938;-78
2024/04/24 06:20:21;;;;;;;;;;;;;;;25.25;25.93;96990.03;5384789;26;19941;-78
2024/04/24 06:22:47;;;;;;;;;;;;;;;25.49;26.07;96993.00;5391974;26;19937;-77
2024/04/24 06:25:13;;;;;;;;;;;;;;;26.35;25.25;96990.66;5404645;26;19933;-78
2024/04/24 06:27:39;;;;;;;;;;;;;;;26.82;24.85;96984.31;5420342;26;20253;-78
2024/04/24 06:30:05;;;;;;;;;;;;;;;27.12;23.93;96983.19;5410509;26;19933;-78
2024/04/24 06:32:32;;;;;;;;;;;;;;;27.14;24.10;96989.13;5384730;26;20371;-78
2024/04/24 06:34:59;;;;;;;;;;;;;;;26.97;24.28;96985.94;5353893;26;19938;-78
2024/04/24 06:37:25;;;;;;;;;;;;;;;26.87;24.42;96989.28;5385779;26;19940;-78
2024/04/24 06:39:51;;;;;;;;;;;;;;;26.77;24.43;96985.00;5390733;26;19935;-78
2024/04/24 06:42:18;;;;;;;;;;;;;;;27.07;24.04;96984.59;5395187;26;19929;-78
2024/04/24 06:44:44;;;;;;;;;;;;;;;27.15;23.94;96983.00;5403280;26;19929;-78
2024/04/24 06:47:10;;;;;;;;;;;;;;;27.24;24.05;96990.59;5397046;26;19936;-78
2024/04/24 06:49:36;;;;;;;;;;;;;;;27.45;24.18;96992.31;5390786;26;20625;-78
2024/04/24 06:52:05;;;;;;;;;;;;;;;27.71;23.84;96986.91;5403271;26;19929;-78
2024/04/24 06:54:31;;;;;;;;;;;;;;;27.65;23.52;96984.00;5402569;26;19935;-78
2024/04/24 06:56:57;;;;;;;;;;;;;;;27.64;23.57;96976.81;5374239;26;20376;-78
2024/04/24 06:59:24;;;;;;;;;;;;;;;27.57;23.85;96974.38;5397546;26;19935;-78
2024/04/24 07:01:51;;;;;;;;;;;;;;;26.96;24.26;96972.31;5415437;26;19929;-78
2024/04/24 07:04:17;;;;;;;;;;;;;;;26.21;25.29;96974.44;5419784;26;19936;-78
2024/04/24 07:06:43;;;;;;;;;;;;;;;26.52;25.09;96970.06;5419351;26;19936;-78
2024/04/24 07:09:09;;;;;;;;;;;;;;;26.81;24.70;96975.09;5395072;26;19956;-78
2024/04/24 07:11:35;;;;;;;;;;;;;;;26.80;24.09;96970.72;5384058;26;19930;-78
2024/04/24 07:14:02;;;;;;;;;;;;;;;26.59;24.44;96972.53;5384743;26;20003;-78
2024/04/24 07:16:31;;;;;;;;;;;;;;;26.63;24.81;96966.72;5419273;26;19929;-78
2024/04/24 07:18:57;;;;;;;;;;;;;;;26.44;24.62;96968.84;5419122;26;19929;-78
2024/04/24 07:21:25;;;;;;;;;;;;;;;26.02;25.24;96963.22;5354440;26;19941;-78
2024/04/24 07:23:51;;;;;;;;;;;;;;;26.59;24.88;96958.47;5383772;26;19940;-78
2024/04/24 07:26:18;;;;;;;;;;;;;;;26.77;24.52;96970.91;5383801;26;19936;-78
2024/04/24 07:28:44;;;;;;;;;;;;;;;26.94;24.16;96958.72;5387099;26;19930;-78
2024/04/24 07:31:10;;;;;;;;;;;;;;;27.09;24.49;96970.84;5399135;26;19930;-78
2024/04/24 07:33:36;;;;;;;;;;;;;;;27.09;24.27;96958.78;5352796;26;19937;-78
2024/04/24 07:36:02;;;;;;;;;;;;;;;27.12;24.42;96957.81;5383315;26;19933;-78
2024/04/24 07:38:28;;;;;;;;;;;;;;;26.99;24.43;96954.47;5358837;26;19929;-78
2024/04/24 07:40:54;;;;;;;;;;;;;;;27.08;24.19;96957.22;5418908;26;19998;-78
2024/04/24 07:43:20;;;;;;;;;;;;;;;26.90;24.62;96951.72;5416294;26;19938;-78
2024/04/24 07:45:46;;;;;;;;;;;;;;;26.89;24.72;96953.75;5418971;26;19940;-78
2024/04/24 07:48:12;;;;;;;;;;;;;;;27.03;24.66;96961.47;5397572;26;19942;-78
2024/04/24 07:50:39;;;;;;;;;;;;;;;26.50;24.74;96952.88;5382986;26;19933;-78
2024/04/24 07:53:05;;;;;;;;;;;;;;;26.29;25.26;96953.13;5383817;26;19930;-78
2024/04/24 07:55:31;;;;;;;;;;;;;;;26.55;25.09;96954.25;5383680;26;19958;-78
2024/04/24 07:57:57;;;;;;;;;;;;;;;26.58;24.76;96953.31;5352790;26;19936;-78
2024/04/24 08:00:23;;;;;;;;;;;;;;;26.76;24.95;96953.22;5399052;26;19945;-78
2024/04/24 08:02:49;;;;;;;;;;;;;;;26.47;25.06;96948.19;5383315;26;19930;-78
2024/04/24 08:05:15;;;;;;;;;;;;;;;26.50;24.98;96947.25;5404599;26;19936;-78
2024/04/24 08:07:41;;;;;;;;;;;;;;;26.78;24.66;96952.75;5418764;26;20264;-79
2024/04/24 08:10:10;;;;;;;;;;;;;;;26.89;24.08;96953.75;5399260;26;19941;-79
2024/04/24 08:12:36;;;;;;;;;;;;;;;26.98;24.51;96950.88;5382642;26;19929;-78
2024/04/24 08:15:03;;;;;;;;;;;;;;;27.00;24.32;96942.72;5382217;26;19930;-78
2024/04/24 08:17:30;;;;;;;;;;;;;;;27.40;24.24;96943.03;5383136;26;19937;-79
2024/04/24 08:19:56;;;;;;;;;;;;;;;27.39;24.12;96946.34;5396174;26;19997;-78
2024/04/24 08:22:23;;;;;;;;;;;;;;;27.58;23.87;96949.78;5395088;26;19941;-78
2024/04/24 08:24:49;;;;;;;;;;;;;;;26.89;24.25;96947.34;5383038;26;20000;-78
2024/04/24 08:27:15;;;;;;;;;;;;;;;26.93;24.33;96942.31;5385065;26;19937;-78
2024/04/24 08:29:41;;;;;;;;;;;;;;;26.43;25.07;96941.19;5367940;26;19929;-78
2024/04/24 08:32:07;;;;;;;;;;;;;;;26.40;25.02;96945.72;5386939;26;19956;-78
2024/04/24 08:34:33;;;;;;;;;;;;;;;26.37;25.21;96945.94;5400807;26;19961;-78
2024/04/24 08:36:59;;;;;;;;;;;;;;;26.21;25.27;96941.44;5394978;26;19929;-78
2024/04/24 08:39:26;;;;;;;;;;;;;;;26.74;24.87;96933.97;5390263;26;20314;-80
2024/04/24 08:41:53;;;;;;;;;;;;;;;26.30;24.89;96935.78;5389309;26;19938;-80
2024/04/24 08:44:20;;;;;;;;;;;;;;;25.88;25.20;96932.94;5382690;26;19944;-81
2024/04/24 08:46:46;;;;;;;;;;;;;;;25.63;25.15;96941.78;5382749;26;19933;-80
2024/04/24 08:49:12;;;;;;;;;;;;;;;24.81;26.29;96935.38;5382108;26;19933;-80
2024/04/24 08:51:41;;;;;;;;;;;;;;;25.22;25.88;96934.78;5389237;26;19937;-81
2024/04/24 08:54:14;;;;;;;;;;;;;;;25.65;25.28;96939.25;5418073;26;20264;-80
2024/04/24 08:56:46;;;;;;;;;;;;;;;25.88;25.03;96940.63;5389470;26;19929;-80
2024/04/24 08:59:15;;;;;;;;;;;;;;;26.19;24.88;96934.72;5382393;26;19935;-81
2024/04/24 09:01:44;;;;;;;;;;;;;;;25.69;25.48;96928.66;5417771;26;19953;-80
2024/04/24 09:04:12;;;;;;;;;;;;;;;26.23;25.03;96926.91;5417560;26;19934;-80
2024/04/24 09:06:39;;;;;;;;;;;;;;;24.89;26.04;96927.44;5417933;26;20357;-80
2024/04/24 09:09:07;;;;;;;;;;;;;;;25.22;26.04;96928.38;5416539;26;19933;-80
2024/04/24 09:11:33;;;;;;;;;;;;;;;25.38;26.12;96925.25;5410399;26;19929;-81
2024/04/24 09:13:59;;;;;;;;;;;;;;;25.38;26.39;96922.44;5414198;26;19932;-80
2024/04/24 09:16:26;;;;;;;;;;;;;;;25.14;25.84;96919.47;5417589;26;20388;-80
2024/04/24 09:19:00;;;;;;;;;;;;;;;25.35;26.03;96914.94;5414752;26;20022;-80
2024/04/24 09:21:30;;;;;;;;;;;;;;;25.58;25.81;96919.91;5357220;26;20323;-80
2024/04/24 09:23:56;;;;;;;;;;;;;;;25.67;26.32;96917.06;5414747;26;19940;-80
2024/04/24 09:26:22;;;;;;;;;;;;;;;25.40;25.87;96915.09;5420128;26;19937;-79
2024/04/24 09:28:50;;;;;;;;;;;;;;;25.66;26.07;96914.75;5420131;26;19933;-80
2024/04/24 09:31:16;;;;;;;;;;;;;;;25.88;25.50;96904.06;5385047;26;20020;-80
2024/04/24 09:33:42;;;;;;;;;;;;;;;26.33;25.11;96903.88;5394065;26;19957;-80
2024/04/24 09:36:09;;;;;;;;;;;;;;;25.61;25.25;96896.50;5420580;26;19929;-80
2024/04/24 09:38:35;;;;;;;;;;;;;;;26.19;25.26;96895.34;5358085;26;19937;-80
2024/04/24 09:41:01;;;;;;;;;;;;;;;25.89;25.10;96897.16;5403879;26;19937;-80
2024/04/24 09:43:28;;;;;;;;;;;;;;;26.34;25.09;96901.84;5420416;26;19941;-80
2024/04/24 09:45:57;;;;;;;;;;;;;;;25.92;25.16;96897.00;5400146;26;19929;-80
2024/04/24 09:48:24;;;;;;;;;;;;;;;25.77;25.32;96895.34;5420615;26;19929;-80
2024/04/24 09:50:50;;;;;;;;;;;;;;;25.96;25.39;96897.63;5393489;26;19999;-80
2024/04/24 09:53:17;;;;;;;;;;;;;;;26.65;24.65;96896.66;5385044;26;20381;-80
2024/04/24 09:55:48;;;;;;;;;;;;;;;26.29;25.08;96894.84;5385222;26;19929;-80
2024/04/24 09:58:16;;;;;;;;;;;;;;;26.92;23.82;96896.47;5385028;26;20369;-81
2024/04/24 10:00:46;;;;;;;;;;;;;;;27.50;23.57;96884.50;5384889;26;19930;-80
2024/04/24 10:03:13;;;;;;;;;;;;;;;27.55;23.41;96880.25;5408314;26;19937;-81
2024/04/24 10:05:41;;;;;;;;;;;;;;;27.42;23.53;96883.38;5353780;26;20039;-79
2024/04/24 10:08:10;;;;;;;;;;;;;;;27.49;23.59;96882.19;5384820;26;20365;-78
2024/04/24 10:10:41;;;;;;;;;;;;;;;27.95;23.16;96875.53;5384753;26;19936;-78
2024/04/24 10:13:08;;;;;;;;;;;;;;;27.84;22.67;96878.16;5353944;26;19930;-78
2024/04/24 10:15:41;;;;;;;;;;;;;;;27.95;23.38;96877.56;5384212;26;19930;-78
2024/04/24 10:18:08;;;;;;;;;;;;;;;28.09;22.58;96879.63;5384705;26;19929;-78
2024/04/24 10:20:35;;;;;;;;;;;;;;;27.85;22.97;96876.91;5385776;26;19958;-78
2024/04/24 10:23:02;;;;;;;;;;;;;;;28.31;22.65;96876.38;5384642;26;20365;-78
2024/04/24 10:25:29;;;;;;;;;;;;;;;28.38;22.45;96876.69;5384737;26;19929;-78
2024/04/24 10:27:56;;;;;;;;;;;;;;;28.69;22.05;96878.94;5402924;26;19930;-78
2024/04/24 10:30:22;;;;;;;;;;;;;;;28.85;22.13;96875.56;5396387;26;19930;-78
2024/04/24 10:32:48;;;;;;;;;;;;;;;28.32;22.51;96867.38;5384627;26;19937;-78
2024/04/24 10:35:15;;;;;;;;;;;;;;;27.86;23.43;96872.84;5384499;26;20007;-78
2024/04/24 10:37:41;;;;;;;;;;;;;;;28.26;22.85;96869.38;5384773;26;19937;-78
2024/04/24 10:40:12;;;;;;;;;;;;;;;28.52;22.75;96866.66;5384822;26;19937;-78
2024/04/24 10:42:38;;;;;;;;;;;;;;;28.54;22.89;96864.84;5384511;26;19929;-78
2024/04/24 10:45:04;;;;;;;;;;;;;;;28.78;22.31;96861.09;5386346;26;19998;-78
2024/04/24 10:47:30;;;;;;;;;;;;;;;29.10;22.36;96862.75;5384122;26;19929;-78
2024/04/24 10:49:58;;;;;;;;;;;;;;;29.29;21.99;96864.00;5383977;26;20254;-78
2024/04/24 10:52:24;;;;;;;;;;;;;;;29.27;21.46;96861.66;5384495;26;19938;-78
2024/04/24 10:54:51;;;;;;;;;;;;;;;28.88;21.82;96868.91;5409949;26;19929;-78
2024/04/24 10:57:17;;;;;;;;;;;;;;;28.51;22.41;96867.91;5419674;26;19929;-78
2024/04/24 10:59:46;;;;;;;;;;;;;;;28.10;22.81;96864.22;5400305;26;19937;-78
2024/04/24 11:02:17;;;;;;;;;;;;;;;28.12;23.16;96867.38;5384215;26;19929;-78
2024/04/24 11:04:49;;;;;;;;;;;;;;;28.05;23.10;96864.94;5384457;26;19940;-78
2024/04/24 11:07:16;;;;;;;;;;;;;;;28.17;22.85;96861.00;5384111;26;19969;-78
2024/04/24 11:09:45;;;;;;;;;;;;;;;28.34;22.50;96858.41;5384211;26;20306;-77
2024/04/24 11:12:11;;;;;;;;;;;;;;;28.75;22.87;96860.78;5385204;26;20005;-78
2024/04/24 11:14:39;;;;;;;;;;;;;;;29.19;22.25;96862.63;5403801;26;20040;-78
2024/04/24 11:17:05;;;;;;;;;;;;;;;28.89;22.38;96861.22;5383806;26;19929;-78
2024/04/24 11:19:33;;;;;;;;;;;;;;;28.86;22.65;96860.16;5384016;26;19933;-78
2024/04/24 11:22:00;;;;;;;;;;;;;;;28.62;22.44;96865.25;5394589;26;19937;-78
2024/04/24 11:24:32;;;;;;;;;;;;;;;28.81;22.41;96860.09;5385632;26;20056;-78
2024/04/24 11:26:59;;;;;;;;;;;;;;;28.76;22.50;96861.56;5383906;26;19929;-78
2024/04/24 11:29:25;;;;;;;;;;;;;;;28.88;22.29;96863.25;5406276;26;20361;-78
2024/04/24 11:31:52;;;;;;;;;;;;;;;29.23;22.30;96866.00;5390501;26;19985;-79
2024/04/24 11:34:19;;;;;;;;;;;;;;;29.28;22.06;96863.22;5384167;26;19938;-79
2024/04/24 11:36:45;;;;;;;;;;;;;;;29.37;21.94;96854.56;5405197;26;20371;-79
2024/04/24 11:39:12;;;;;;;;;;;;;;;28.53;22.42;96859.72;5419367;26;19975;-78
2024/04/24 11:41:38;;;;;;;;;;;;;;;28.67;22.73;96864.53;5417018;26;19936;-78
2024/04/24 11:44:06;;;;;;;;;;;;;;;27.88;23.08;96861.84;5410576;26;19928;-78
2024/04/24 11:46:36;;;;;;;;;;;;;;;27.94;23.41;96859.88;5392262;26;19929;-78
2024/04/24 11:49:04;;;;;;;;;;;;;;;28.17;23.01;96865.88;5351303;26;19953;-78
2024/04/24 11:51:32;;;;;;;;;;;;;;;27.85;23.55;96857.16;5383634;26;19929;-78
2024/04/24 11:53:59;;;;;;;;;;;;;;;28.47;22.93;96862.44;5393426;26;19937;-78
2024/04/24 11:56:25;;;;;;;;;;;;;;;28.56;22.44;96859.50;5376079;26;20369;-78
2024/04/24 11:58:51;;;;;;;;;;;;;;;28.45;22.97;96853.69;5383806;26;19937;-78
2024/04/24 12:01:18;;;;;;;;;;;;;;;28.32;22.69;96853.28;5383191;26;19936;-78
2024/04/24 12:03:45;;;;;;;;;;;;;;;28.70;22.81;96855.09;5385817;26;19933;-78
2024/04/24 12:06:13;;;;;;;;;;;;;;;29.14;22.07;96852.00;5383263;26;20328;-78
2024/04/24 12:08:39;;;;;;;;;;;;;;;29.17;22.55;96854.59;5383353;26;19934;-77
2024/04/24 12:11:05;;;;;;;;;;;;;;;29.20;22.43;96850.81;5400898;26;19936;-78
2024/04/24 12:13:32;;;;;;;;;;;;;;;28.79;22.50;96845.69;5415783;26;19999;-78
2024/04/24 12:15:59;;;;;;;;;;;;;;;28.75;22.48;96845.91;5383897;26;19937;-78
2024/04/24 12:18:25;;;;;;;;;;;;;;;28.76;22.94;96844.63;5384799;26;19936;-78
2024/04/24 12:20:51;;;;;;;;;;;;;;;28.46;23.12;96843.19;5390867;26;19933;-78
2024/04/24 12:23:18;;;;;;;;;;;;;;;28.71;22.95;96845.31;5405145;26;19936;-80
2024/04/24 12:25:44;;;;;;;;;;;;;;;28.94;22.76;96835.09;5397092;26;19933;-78
2024/04/24 12:28:10;;;;;;;;;;;;;;;28.73;22.63;96839.94;5415048;26;19936;-80
2024/04/24 12:30:36;;;;;;;;;;;;;;;28.85;22.50;96844.47;5417851;26;19941;-78
2024/04/24 12:33:02;;;;;;;;;;;;;;;28.89;22.34;96842.22;5418433;26;19929;-79
2024/04/24 12:35:28;;;;;;;;;;;;;;;28.90;22.80;96842.97;5407681;26;19928;-79
2024/04/24 12:37:55;;;;;;;;;;;;;;;29.00;22.46;96845.16;5386430;26;19961;-79
2024/04/24 12:40:21;;;;;;;;;;;;;;;28.01;23.79;96830.50;5403608;26;19988;-78
2024/04/24 12:42:47;;;;;;;;;;;;;;;26.79;25.02;96844.47;5392200;26;20059;-78
2024/04/24 12:45:13;;;;;;;;;;;;;;;27.13;24.61;96829.75;5382525;26;19930;-79
2024/04/24 12:47:39;;;;;;;;;;;;;;;26.17;25.51;96841.59;5415536;26;19929;-79